createdAt,value
2022-11-23T00:01:25.765Z,99280.41
2022-11-23T00:03:56.319Z,99279.59
2022-11-23T00:06:24.348Z,99280.81
2022-11-23T00:08:52.026Z,99285.63
2022-11-23T00:11:21.428Z,99282.41
2022-11-23T00:13:48.240Z,99278.63
2022-11-23T00:16:16.969Z,99284.41
2022-11-23T00:18:43.785Z,99285.28
2022-11-23T00:21:16.278Z,99288.44
2022-11-23T00:23:43.833Z,99286.66
2022-11-23T00:26:11.701Z,99282.53
2022-11-23T00:28:40.792Z,99285.13
2022-11-23T00:31:10.624Z,99285.97
2022-11-23T00:33:42.257Z,99285.78
2022-11-23T00:36:15.150Z,99286.84
2022-11-23T00:38:44.137Z,99285.03
2022-11-23T00:41:16.833Z,99285.97
2022-11-23T00:43:44.164Z,99300.13
2022-11-23T00:46:16.556Z,99296.19
2022-11-23T00:48:47.908Z,99303.63
2022-11-23T00:51:17.080Z,99300.78
2022-11-23T00:53:44.555Z,99296.66
2022-11-23T00:56:11.838Z,99293.66
2022-11-23T00:58:41.355Z,99288.09
2022-11-23T01:01:14.035Z,99286.66
2022-11-23T01:03:43.482Z,99291.94
2022-11-23T01:06:12.293Z,99284.94
2022-11-23T01:08:39.452Z,99297.44
2022-11-23T01:11:09.061Z,99289.41
2022-11-23T01:13:37.480Z,99295.22
2022-11-23T01:16:05.573Z,99290.19
2022-11-23T01:18:32.348Z,99295.66
2022-11-23T01:21:01.475Z,99295.41
2022-11-23T01:23:31.517Z,99290.00
2022-11-23T01:25:58.559Z,99301.41
2022-11-23T01:28:25.225Z,99303.19
2022-11-23T01:30:52.098Z,99303.34
2022-11-23T01:33:19.035Z,99302.75
2022-11-23T01:35:47.070Z,99302.66
2022-11-23T01:38:18.254Z,99304.81
2022-11-23T01:40:45.385Z,99309.13
2022-11-23T01:43:16.349Z,99316.19
2022-11-23T01:45:53.821Z,99312.00
2022-11-23T01:48:24.163Z,99306.44
2022-11-23T01:50:52.765Z,99322.19
2022-11-23T01:53:20.880Z,99318.53
2022-11-23T01:55:49.892Z,99310.00
2022-11-23T01:58:19.610Z,99321.41
2022-11-23T02:00:47.613Z,99319.34
2022-11-23T02:03:18.001Z,99316.47
2022-11-23T02:05:48.252Z,99317.09
2022-11-23T02:08:20.348Z,99315.31
2022-11-23T02:10:48.352Z,99304.66
2022-11-23T02:13:15.375Z,99306.50
2022-11-23T02:15:42.773Z,99313.59
2022-11-23T02:18:13.603Z,99317.06
2022-11-23T02:20:40.691Z,99319.25
2022-11-23T02:23:34.332Z,99319.03
2022-11-23T02:26:08.462Z,99318.72
2022-11-23T02:28:45.893Z,99322.28
2022-11-23T02:31:14.624Z,99319.50
2022-11-23T02:33:42.163Z,99328.25
2022-11-23T02:36:33.691Z,99315.75
2022-11-23T02:39:11.189Z,99322.81
2022-11-23T02:41:42.124Z,99319.75
2022-11-23T02:44:21.205Z,99319.22
2022-11-23T02:46:50.133Z,99320.81
2022-11-23T02:49:16.897Z,99319.69
2022-11-23T02:51:43.759Z,99331.66
2022-11-23T02:54:10.618Z,99319.34
2022-11-23T02:56:38.351Z,99319.84
2022-11-23T02:59:05.314Z,99322.97
2022-11-23T03:01:32.223Z,99324.53
2022-11-23T03:03:59.068Z,99322.97
2022-11-23T03:06:28.661Z,99322.22
2022-11-23T03:08:56.069Z,99317.84
2022-11-23T03:11:23.328Z,99315.66
2022-11-23T03:13:50.503Z,99325.53
2022-11-23T03:16:20.570Z,99327.16
2022-11-23T03:18:48.386Z,99325.69
2022-11-23T03:21:15.380Z,99327.56
2022-11-23T03:23:42.839Z,99331.88
2022-11-23T03:26:13.305Z,99333.94
2022-11-23T03:28:52.801Z,99347.16
2022-11-23T03:31:20.389Z,99346.56
2022-11-23T03:33:47.782Z,99344.47
2022-11-23T03:36:14.695Z,99345.59
2022-11-23T03:38:44.485Z,99340.75
2022-11-23T03:41:25.068Z,99338.81
2022-11-23T03:43:53.582Z,99349.47
2022-11-23T03:46:20.380Z,99354.31
2022-11-23T03:48:47.335Z,99346.59
2022-11-23T03:51:14.223Z,99349.13
2022-11-23T03:53:41.385Z,99356.38
2022-11-23T03:56:09.090Z,99353.75
2022-11-23T03:58:40.824Z,99357.47
2022-11-23T04:01:11.844Z,99362.13
2022-11-23T04:03:39.212Z,99353.03
2022-11-23T04:06:16.271Z,99358.81
2022-11-23T04:09:02.029Z,99355.63
2022-11-23T04:11:45.259Z,99350.22
2022-11-23T04:14:12.262Z,99349.72
2022-11-23T04:16:39.545Z,99345.63
2022-11-23T04:19:06.786Z,99348.41
2022-11-23T04:21:33.576Z,99341.44
2022-11-23T04:24:00.656Z,99339.91
2022-11-23T04:26:30.554Z,99340.31
2022-11-23T04:28:57.433Z,99333.13
2022-11-23T04:31:24.608Z,99328.59
2022-11-23T04:34:00.988Z,99340.69
2022-11-23T04:36:28.431Z,99322.72
2022-11-23T04:38:55.763Z,99329.28
2022-11-23T04:41:33.771Z,99326.81
2022-11-23T04:44:02.621Z,99327.44
2022-11-23T04:46:30.075Z,99325.75
2022-11-23T04:48:58.888Z,99321.16
2022-11-23T04:51:26.797Z,99319.53
2022-11-23T04:53:54.663Z,99329.88
2022-11-23T04:56:21.506Z,99328.66
2022-11-23T04:58:48.431Z,99328.06
2022-11-23T05:01:15.387Z,99321.00
2022-11-23T05:04:16.329Z,99320.97
2022-11-23T05:06:45.618Z,99314.84
2022-11-23T05:09:13.556Z,99316.28
2022-11-23T05:11:49.364Z,99307.19
2022-11-23T05:14:17.025Z,99313.03
2022-11-23T05:16:43.871Z,99312.66
2022-11-23T05:19:10.991Z,99305.16
2022-11-23T05:21:38.684Z,99313.72
2022-11-23T05:24:05.710Z,99315.13
2022-11-23T05:26:32.784Z,99313.84
2022-11-23T05:28:59.752Z,99312.47
2022-11-23T05:31:27.988Z,99307.16
2022-11-23T05:33:54.802Z,99309.28
2022-11-23T05:36:33.686Z,99306.56
2022-11-23T05:39:00.461Z,99300.69
2022-11-23T05:41:31.356Z,99312.72
2022-11-23T05:44:01.105Z,99310.94
2022-11-23T05:46:29.566Z,99310.63
2022-11-23T05:48:56.317Z,99307.81
2022-11-23T05:51:24.391Z,99317.06
2022-11-23T05:53:52.020Z,99319.75
2022-11-23T05:56:37.145Z,99324.19
2022-11-23T05:59:14.271Z,99320.22
2022-11-23T06:01:43.962Z,99320.81
2022-11-23T06:04:14.041Z,99328.34
2022-11-23T06:06:44.805Z,99329.59
2022-11-23T06:09:11.654Z,99317.94
2022-11-23T06:11:41.425Z,99318.09
2022-11-23T06:14:14.479Z,99319.34
2022-11-23T06:16:44.062Z,99320.69
2022-11-23T06:19:25.091Z,99324.25
2022-11-23T06:21:52.877Z,99324.84
2022-11-23T06:24:21.572Z,99328.56
2022-11-23T06:26:59.539Z,99326.63
2022-11-23T06:29:26.339Z,99327.84
2022-11-23T06:31:53.215Z,99326.72
2022-11-23T06:34:20.158Z,99323.44
2022-11-23T06:36:47.590Z,99314.84
2022-11-23T06:39:14.436Z,99327.41
2022-11-23T06:41:41.294Z,99333.84
2022-11-23T06:44:08.280Z,99329.81
2022-11-23T06:46:41.009Z,99327.81
2022-11-23T06:49:07.992Z,99324.56
2022-11-23T06:51:35.182Z,99332.59
2022-11-23T06:54:02.277Z,99338.19
2022-11-23T06:56:29.098Z,99340.66
2022-11-23T06:58:55.970Z,99350.50
2022-11-23T07:01:26.373Z,99347.88
2022-11-23T07:03:59.096Z,99345.75
2022-11-23T07:06:30.836Z,99346.06
2022-11-23T07:09:00.886Z,99360.44
2022-11-23T07:11:46.536Z,99360.06
2022-11-23T07:14:13.520Z,99364.59
2022-11-23T07:16:43.293Z,99371.69
2022-11-23T07:19:11.257Z,99375.13
2022-11-23T07:21:38.388Z,99377.69
2022-11-23T07:24:05.748Z,99368.19
2022-11-23T07:26:32.706Z,99380.56
2022-11-23T07:28:59.682Z,99387.44
2022-11-23T07:31:26.975Z,99393.97
2022-11-23T07:33:54.564Z,99387.84
2022-11-23T07:36:24.078Z,99401.34
2022-11-23T07:38:53.977Z,99415.44
2022-11-23T07:41:22.815Z,99412.50
2022-11-23T07:44:06.875Z,99404.19
2022-11-23T07:46:34.026Z,99405.88
2022-11-23T07:49:02.461Z,99418.03
2022-11-23T07:51:29.711Z,99431.53
2022-11-23T07:53:56.806Z,99430.50
2022-11-23T07:56:24.128Z,99424.78
2022-11-23T07:58:50.867Z,99425.50
2022-11-23T08:01:18.588Z,99434.38
2022-11-23T08:03:46.411Z,99437.63
2022-11-23T08:06:14.365Z,99450.66
2022-11-23T08:08:41.410Z,99445.59
2022-11-23T08:11:09.923Z,99446.63
2022-11-23T08:13:40.106Z,99439.31
2022-11-23T08:16:10.367Z,99439.53
2022-11-23T08:18:37.335Z,99430.97
2022-11-23T08:21:04.489Z,99430.44
2022-11-23T08:23:34.419Z,99425.25
2022-11-23T08:26:06.556Z,99425.81
2022-11-23T08:28:37.996Z,99427.81
2022-11-23T08:31:12.046Z,99426.16
2022-11-23T08:33:39.840Z,99424.78
2022-11-23T08:36:07.792Z,99422.66
2022-11-23T08:38:35.129Z,99417.56
2022-11-23T08:41:03.218Z,99425.38
2022-11-23T08:43:30.091Z,99414.88
2022-11-23T08:46:03.887Z,99418.09
2022-11-23T08:48:32.564Z,99405.84
2022-11-23T08:51:00.847Z,99402.06
2022-11-23T08:53:28.002Z,99399.78
2022-11-23T08:55:54.826Z,99395.84
2022-11-23T08:58:21.906Z,99384.44
2022-11-23T09:00:48.915Z,99370.50
2022-11-23T09:03:21.682Z,99363.47
2022-11-23T09:05:48.983Z,99349.44
2022-11-23T09:08:16.795Z,99353.97
2022-11-23T09:10:43.750Z,99345.13
2022-11-23T09:13:10.778Z,99348.09
2022-11-23T09:15:37.970Z,99357.00
2022-11-23T09:18:05.104Z,99358.31
2022-11-23T09:20:32.553Z,99355.91
2022-11-23T09:22:59.633Z,99347.22
2022-11-23T09:25:26.499Z,99347.13
2022-11-23T09:28:00.316Z,99351.84
2022-11-23T09:30:28.845Z,99348.03
2022-11-23T09:32:57.589Z,99339.13
2022-11-23T09:35:25.367Z,99354.66
2022-11-23T09:37:57.596Z,99351.91
2022-11-23T09:40:27.719Z,99358.00
2022-11-23T09:43:23.051Z,99363.91
2022-11-23T09:45:54.726Z,99358.22
2022-11-23T09:48:35.278Z,99360.50
2022-11-23T09:51:12.488Z,99355.56
2022-11-23T09:53:46.612Z,99347.75
2022-11-23T09:56:21.377Z,99344.53
2022-11-23T09:58:53.284Z,99355.53
2022-11-23T10:01:33.873Z,99343.75
2022-11-23T10:04:01.100Z,99342.66
2022-11-23T10:06:31.727Z,99339.47
2022-11-23T10:09:12.959Z,99335.22
2022-11-23T10:12:00.304Z,99334.50
2022-11-23T10:14:36.398Z,99329.34
2022-11-23T10:17:34.524Z,99321.28
2022-11-23T10:20:19.622Z,99320.69
2022-11-23T10:22:56.495Z,99315.03
2022-11-23T10:25:24.341Z,99321.94
2022-11-23T10:27:59.519Z,99312.19
2022-11-23T10:30:26.344Z,99299.50
2022-11-23T10:33:32.893Z,99299.91
2022-11-23T10:35:59.762Z,99297.34
2022-11-23T10:38:27.878Z,99284.16
2022-11-23T10:41:07.816Z,99279.09
2022-11-23T10:43:59.570Z,99257.28
2022-11-23T10:46:31.580Z,99252.56
2022-11-23T10:49:19.536Z,99252.44
2022-11-23T10:51:52.417Z,99246.59
2022-11-23T10:54:26.462Z,99249.91
2022-11-23T10:56:54.178Z,99247.66
2022-11-23T10:59:33.414Z,99240.66
2022-11-23T11:02:18.131Z,99231.41
2022-11-23T11:04:46.574Z,99227.94
2022-11-23T11:07:26.712Z,99222.69
2022-11-23T11:10:01.959Z,99222.75
2022-11-23T11:12:33.396Z,99216.94
2022-11-23T11:15:12.180Z,99213.09
2022-11-23T11:17:39.892Z,99212.88
2022-11-23T11:20:33.965Z,99209.41
2022-11-23T11:23:04.491Z,99199.50
2022-11-23T11:25:39.841Z,99189.94
2022-11-23T11:28:26.002Z,99194.28
2022-11-23T11:31:30.243Z,99188.28
2022-11-23T11:34:34.530Z,99186.34
2022-11-23T11:37:12.321Z,99167.50
2022-11-23T11:39:51.210Z,99177.66
2022-11-23T11:42:22.083Z,99172.91
2022-11-23T11:44:53.271Z,99162.56
2022-11-23T11:47:28.279Z,99158.38
2022-11-23T11:49:57.034Z,99153.13
2022-11-23T11:52:36.894Z,99147.19
2022-11-23T11:55:19.049Z,99138.94
2022-11-23T11:58:13.070Z,99140.34
2022-11-23T12:00:44.863Z,99121.19
2022-11-23T12:03:39.882Z,99131.75
2022-11-23T12:06:27.213Z,99120.41
2022-11-23T12:09:22.007Z,99114.28
2022-11-23T12:11:53.142Z,99118.38
2022-11-23T12:14:20.563Z,99101.09
2022-11-23T12:20:00.476Z,99103.03
2022-11-23T12:23:04.354Z,99102.38
2022-11-23T12:25:36.833Z,99113.31
2022-11-23T12:28:23.211Z,99122.19
2022-11-23T12:31:31.163Z,99130.28
2022-11-23T12:34:33.415Z,99130.81
2022-11-23T12:37:15.419Z,99125.69
2022-11-23T12:39:49.782Z,99126.97
2022-11-23T12:42:24.187Z,99131.66
2022-11-23T12:45:19.027Z,99131.44
2022-11-23T12:48:01.088Z,99131.06
2022-11-23T12:50:40.449Z,99136.03
2022-11-23T12:53:25.934Z,99135.59
2022-11-23T12:55:58.899Z,99141.69
2022-11-23T12:58:33.551Z,99147.50
2022-11-23T13:01:07.835Z,99141.22
2022-11-23T13:04:13.019Z,99163.34
2022-11-23T13:06:59.299Z,99162.38
2022-11-23T13:09:33.185Z,99163.50
2022-11-23T13:12:07.831Z,99180.81
2022-11-23T13:15:02.250Z,99180.38
2022-11-23T13:17:56.201Z,99191.69
2022-11-23T13:20:35.054Z,99197.88
2022-11-23T13:23:02.165Z,99217.16
2022-11-23T13:25:29.821Z,99221.75
2022-11-23T13:28:04.453Z,99222.97
2022-11-23T13:33:31.541Z,99230.34
2022-11-23T13:36:08.718Z,99228.34
2022-11-23T13:38:44.643Z,99218.84
2022-11-23T13:41:39.719Z,99228.16
2022-11-23T13:44:18.770Z,99216.84
2022-11-23T13:46:55.997Z,99222.31
2022-11-23T13:49:42.643Z,99232.81
2022-11-23T13:52:22.788Z,99234.75
2022-11-23T13:55:11.248Z,99234.59
2022-11-23T13:57:41.371Z,99232.72
2022-11-23T14:00:49.097Z,99229.69
2022-11-23T14:04:23.649Z,99222.50
2022-11-23T14:06:54.572Z,99224.84
2022-11-23T14:09:30.288Z,99241.59
2022-11-23T14:12:12.430Z,99254.56
2022-11-23T14:15:09.444Z,99244.75
2022-11-23T14:18:03.600Z,99254.63
2022-11-23T14:20:55.485Z,99261.53
2022-11-23T14:23:53.413Z,99272.78
2022-11-23T14:26:51.101Z,99278.72
2022-11-23T14:29:28.688Z,99279.34
2022-11-23T14:32:17.757Z,99276.59
2022-11-23T14:35:20.693Z,99276.63
2022-11-23T14:38:20.410Z,99271.13
2022-11-23T14:40:55.223Z,99275.16
2022-11-23T14:43:22.703Z,99290.88
2022-11-23T14:45:49.706Z,99300.63
2022-11-23T14:48:23.465Z,99321.75
2022-11-23T14:51:16.388Z,99321.50
2022-11-23T14:53:47.436Z,99326.41
2022-11-23T14:56:33.866Z,99314.88
2022-11-23T14:59:25.180Z,99309.06
2022-11-23T15:01:55.682Z,99307.16
2022-11-23T15:04:27.521Z,99313.56
2022-11-23T15:06:58.351Z,99317.91
2022-11-23T15:09:40.249Z,99320.19
2022-11-23T15:12:33.488Z,99323.16
2022-11-23T15:15:16.013Z,99318.34
2022-11-23T15:17:54.754Z,99340.66
2022-11-23T15:20:23.880Z,99338.88
2022-11-23T15:22:50.878Z,99339.91
2022-11-23T15:25:21.704Z,99352.06
2022-11-23T15:27:49.540Z,99347.97
2022-11-23T15:30:21.844Z,99360.47
2022-11-23T15:33:11.756Z,99354.88
2022-11-23T15:35:39.888Z,99363.03
2022-11-23T15:38:19.005Z,99364.06
2022-11-23T15:40:51.308Z,99362.06
2022-11-23T15:43:19.790Z,99377.75
2022-11-23T15:45:46.618Z,99381.44
2022-11-23T15:48:14.777Z,99379.44
2022-11-23T15:50:54.555Z,99385.63
2022-11-23T15:53:25.209Z,99386.41
2022-11-23T15:55:53.090Z,99380.44
2022-11-23T15:58:20.713Z,99396.38
2022-11-23T16:00:55.122Z,99404.78
2022-11-23T16:03:41.701Z,99402.41
2022-11-23T16:06:14.659Z,99413.78
2022-11-23T16:08:41.717Z,99418.81
2022-11-23T16:11:28.948Z,99426.38
2022-11-23T16:14:20.049Z,99420.94
2022-11-23T16:16:48.933Z,99443.56
2022-11-23T16:19:25.524Z,99438.59
2022-11-23T16:22:00.587Z,99441.00
2022-11-23T16:24:29.467Z,99444.47
2022-11-23T16:26:56.657Z,99458.94
2022-11-23T16:29:32.559Z,99463.72
2022-11-23T16:32:01.187Z,99472.56
2022-11-23T16:34:28.506Z,99483.38
2022-11-23T16:36:56.049Z,99489.09
2022-11-23T16:39:24.374Z,99483.53
2022-11-23T16:41:52.467Z,99481.13
2022-11-23T16:44:19.862Z,99475.56
2022-11-23T16:46:47.661Z,99497.22
2022-11-23T16:49:22.227Z,99498.97
2022-11-23T16:51:57.004Z,99510.22
2022-11-23T16:54:25.473Z,99510.66
2022-11-23T16:56:52.902Z,99515.22
2022-11-23T16:59:20.255Z,99514.66
2022-11-23T17:01:55.460Z,99517.88
2022-11-23T17:04:24.062Z,99529.81
2022-11-23T17:06:50.875Z,99523.47
2022-11-23T17:09:17.672Z,99534.97
2022-11-23T17:11:46.933Z,99538.25
2022-11-23T17:14:18.927Z,99544.13
2022-11-23T17:16:47.165Z,99543.47
2022-11-23T17:19:19.046Z,99544.94
2022-11-23T17:21:46.482Z,99553.78
2022-11-23T17:24:13.987Z,99559.44
2022-11-23T17:26:43.053Z,99561.59
2022-11-23T17:29:16.707Z,99572.13
2022-11-23T17:31:45.512Z,99578.81
2022-11-23T17:34:13.394Z,99586.81
2022-11-23T17:36:41.491Z,99583.56
2022-11-23T17:39:08.150Z,99585.03
2022-11-23T17:41:34.843Z,99595.59
2022-11-23T17:44:01.685Z,99599.22
2022-11-23T17:46:31.643Z,99604.50
2022-11-23T17:48:59.711Z,99601.00
2022-11-23T17:51:28.400Z,99606.88
2022-11-23T17:53:55.173Z,99606.19
2022-11-23T17:56:23.563Z,99607.19
2022-11-23T17:58:52.386Z,99616.75
2022-11-23T18:01:21.502Z,99619.50
2022-11-23T18:03:49.711Z,99631.31
2022-11-23T18:06:18.602Z,99640.34
2022-11-23T18:08:46.577Z,99643.72
2022-11-23T18:11:13.471Z,99646.97
2022-11-23T18:13:40.700Z,99655.56
2022-11-23T18:16:07.764Z,99662.97
2022-11-23T18:18:35.181Z,99660.41
2022-11-23T18:21:05.406Z,99661.09
2022-11-23T18:23:32.546Z,99655.66
2022-11-23T18:26:03.784Z,99660.84
2022-11-23T18:28:30.904Z,99650.91
2022-11-23T18:30:57.952Z,99660.75
2022-11-23T18:33:27.429Z,99656.22
2022-11-23T18:35:54.479Z,99665.03
2022-11-23T18:38:21.175Z,99666.47
2022-11-23T18:40:47.816Z,99663.66
2022-11-23T18:43:15.536Z,99664.22
2022-11-23T18:45:42.542Z,99671.09
2022-11-23T18:48:09.647Z,99673.00
2022-11-23T18:50:37.132Z,99669.66
2022-11-23T18:53:03.934Z,99682.25
2022-11-23T18:55:30.701Z,99687.13
2022-11-23T18:57:57.464Z,99686.66
2022-11-23T19:00:24.568Z,99694.22
2022-11-23T19:02:55.713Z,99700.84
2022-11-23T19:05:23.417Z,99709.28
2022-11-23T19:07:51.538Z,99714.84
2022-11-23T19:10:19.943Z,99723.94
2022-11-23T19:12:46.916Z,99705.94
2022-11-23T19:15:13.698Z,99717.78
2022-11-23T19:17:40.479Z,99718.44
2022-11-23T19:20:08.434Z,99718.91
2022-11-23T19:22:35.945Z,99728.03
2022-11-23T19:25:02.826Z,99734.25
2022-11-23T19:27:29.636Z,99734.47
2022-11-23T19:29:56.523Z,99732.66
2022-11-23T19:32:23.372Z,99743.19
2022-11-23T19:34:50.060Z,99752.66
2022-11-23T19:37:16.844Z,99751.84
2022-11-23T19:39:43.994Z,99759.72
2022-11-23T19:42:10.876Z,99765.03
2022-11-23T19:44:37.747Z,99766.81
2022-11-23T19:47:08.537Z,99766.84
2022-11-23T19:49:39.029Z,99772.13
2022-11-23T19:52:05.955Z,99776.41
2022-11-23T19:54:33.773Z,99785.66
2022-11-23T19:57:00.675Z,99778.75
2022-11-23T19:59:27.792Z,99784.88
2022-11-23T20:01:54.837Z,99784.06
2022-11-23T20:04:22.666Z,99784.50
2022-11-23T20:06:49.444Z,99799.78
2022-11-23T20:09:19.177Z,99806.22
2022-11-23T20:11:50.324Z,99797.72
2022-11-23T20:14:18.041Z,99805.47
2022-11-23T20:16:44.974Z,99810.16
2022-11-23T20:19:12.181Z,99806.72
2022-11-23T20:21:38.978Z,99815.16
2022-11-23T20:24:12.608Z,99822.50
2022-11-23T20:26:39.806Z,99823.91
2022-11-23T20:29:07.581Z,99824.69
2022-11-23T20:31:34.573Z,99824.25
2022-11-23T20:34:03.305Z,99833.19
2022-11-23T20:36:35.180Z,99824.88
2022-11-23T20:39:04.565Z,99832.03
2022-11-23T20:41:34.383Z,99826.94
2022-11-23T20:44:11.918Z,99829.09
2022-11-23T20:47:01.647Z,99826.91
2022-11-23T20:49:25.943Z,99836.47
2022-11-23T20:51:52.862Z,99843.53
2022-11-23T20:54:19.690Z,99838.97
2022-11-23T20:56:46.499Z,99843.22
2022-11-23T20:59:17.188Z,99855.38
2022-11-23T21:01:45.156Z,99861.41
2022-11-23T21:04:12.393Z,99863.34
2022-11-23T21:06:40.319Z,99871.66
2022-11-23T21:09:09.255Z,99858.88
2022-11-23T21:11:54.991Z,99867.97
2022-11-23T21:14:24.693Z,99871.41
2022-11-23T21:16:57.185Z,99883.16
2022-11-23T21:19:26.383Z,99866.06
2022-11-23T21:21:54.111Z,99888.72
2022-11-23T21:24:21.878Z,99888.84
2022-11-23T21:26:49.451Z,99889.31
2022-11-23T21:29:17.215Z,99888.91
2022-11-23T21:31:45.357Z,99892.50
2022-11-23T21:34:23.001Z,99901.66
2022-11-23T21:36:50.574Z,99894.34
2022-11-23T21:39:18.313Z,99897.81
2022-11-23T21:41:45.750Z,99900.03
2022-11-23T21:44:12.648Z,99900.09
2022-11-23T21:46:40.609Z,99900.41
2022-11-23T21:49:08.099Z,99904.34
2022-11-23T21:51:36.039Z,99916.81
2022-11-23T21:54:07.416Z,99919.28
2022-11-23T21:56:34.468Z,99916.59
2022-11-23T21:59:01.559Z,99929.41
2022-11-23T22:01:30.243Z,99929.19
2022-11-23T22:04:02.182Z,99937.19
2022-11-23T22:06:29.687Z,99929.41
2022-11-23T22:08:58.177Z,99941.31
2022-11-23T22:11:25.611Z,99942.50
2022-11-23T22:13:57.572Z,99944.91
2022-11-23T22:16:26.507Z,99941.38
2022-11-23T22:18:55.987Z,99943.53
2022-11-23T22:21:28.039Z,99940.31
2022-11-23T22:23:55.182Z,99940.91
2022-11-23T22:26:22.357Z,99950.34
2022-11-23T22:28:50.796Z,99953.22
2022-11-23T22:31:20.239Z,99962.69
2022-11-23T22:33:47.980Z,99962.97
2022-11-23T22:36:15.771Z,99971.72
2022-11-23T22:38:42.575Z,99966.88
2022-11-23T22:41:11.832Z,99970.06
2022-11-23T22:43:38.753Z,99981.69
2022-11-23T22:46:11.621Z,99979.56
2022-11-23T22:48:39.806Z,99978.72
2022-11-23T22:51:07.557Z,99979.63
2022-11-23T22:53:34.590Z,99979.78
2022-11-23T22:56:03.692Z,99984.56
2022-11-23T22:58:31.731Z,99980.88
2022-11-23T23:01:05.812Z,99988.16
2022-11-23T23:03:33.087Z,99984.81
2022-11-23T23:06:00.001Z,99984.31
2022-11-23T23:08:27.683Z,99997.00
2022-11-23T23:10:55.396Z,100005.03
2022-11-23T23:13:22.896Z,99988.59
2022-11-23T23:15:59.668Z,99990.78
2022-11-23T23:18:26.467Z,99997.50
2022-11-23T23:21:00.426Z,99987.94
2022-11-23T23:23:27.415Z,99994.34
2022-11-23T23:25:54.561Z,99999.03
2022-11-23T23:28:21.599Z,99994.97
2022-11-23T23:30:48.269Z,99984.91
2022-11-23T23:33:16.110Z,99999.22
2022-11-23T23:35:43.024Z,99997.41
2022-11-23T23:38:09.973Z,100000.94
2022-11-23T23:40:36.711Z,100003.97
2022-11-23T23:43:03.800Z,100000.16
2022-11-23T23:45:30.570Z,99994.53
2022-11-23T23:47:58.961Z,99999.22
2022-11-23T23:50:26.120Z,99999.38
2022-11-23T23:52:52.925Z,99996.00
2022-11-23T23:55:19.797Z,100003.38
2022-11-23T23:57:46.569Z,99988.75
